sensor_id;sensor_type;location;lat;lon;timestamp;P1;durP1;ratioP1;P2;durP2;ratioP2
74528;SDS011;63009;52.584;5.932;2023-04-01T00:00:21;8.45;;;3.10;;
74528;SDS011;63009;52.584;5.932;2023-04-01T00:02:47;8.02;;;3.20;;
74528;SDS011;63009;52.584;5.932;2023-04-01T00:05:12;9.73;;;3.43;;
74528;SDS011;63009;52.584;5.932;2023-04-01T00:07:39;9.32;;;3.17;;
74528;SDS011;63009;52.584;5.932;2023-04-01T00:10:06;8.43;;;3.13;;
74528;SDS011;63009;52.584;5.932;2023-04-01T00:12:32;8.27;;;3.05;;
74528;SDS011;63009;52.584;5.932;2023-04-01T00:14:58;8.93;;;3.60;;
74528;SDS011;63009;52.584;5.932;2023-04-01T00:17:23;9.98;;;3.95;;
74528;SDS011;63009;52.584;5.932;2023-04-01T00:19:48;9.77;;;3.38;;
74528;SDS011;63009;52.584;5.932;2023-04-01T00:22:14;9.35;;;3.20;;
74528;SDS011;63009;52.584;5.932;2023-04-01T00:24:39;10.18;;;3.95;;
74528;SDS011;63009;52.584;5.932;2023-04-01T00:27:04;9.82;;;4.22;;
74528;SDS011;63009;52.584;5.932;2023-04-01T00:29:30;11.00;;;3.88;;
74528;SDS011;63009;52.584;5.932;2023-04-01T00:31:57;9.93;;;4.40;;
74528;SDS011;63009;52.584;5.932;2023-04-01T00:34:22;9.25;;;4.13;;
74528;SDS011;63009;52.584;5.932;2023-04-01T00:36:49;11.80;;;4.47;;
74528;SDS011;63009;52.584;5.932;2023-04-01T00:39:15;10.27;;;4.30;;
74528;SDS011;63009;52.584;5.932;2023-04-01T00:41:40;11.45;;;4.72;;
74528;SDS011;63009;52.584;5.932;2023-04-01T00:47:02;11.35;;;4.60;;
74528;SDS011;63009;52.584;5.932;2023-04-01T00:49:31;12.88;;;5.35;;
74528;SDS011;63009;52.584;5.932;2023-04-01T00:52:00;11.70;;;4.88;;
74528;SDS011;63009;52.584;5.932;2023-04-01T00:54:28;12.32;;;5.43;;
74528;SDS011;63009;52.584;5.932;2023-04-01T00:59:45;13.30;;;5.32;;
74528;SDS011;63009;52.584;5.932;2023-04-01T01:02:13;12.80;;;5.90;;
74528;SDS011;63009;52.584;5.932;2023-04-01T01:04:40;13.15;;;5.35;;
74528;SDS011;63009;52.584;5.932;2023-04-01T01:09:55;13.48;;;5.85;;
74528;SDS011;63009;52.584;5.932;2023-04-01T01:12:39;10.80;;;5.05;;
74528;SDS011;63009;52.584;5.932;2023-04-01T01:15:57;12.55;;;5.63;;
74528;SDS011;63009;52.584;5.932;2023-04-01T01:23:48;14.63;;;5.70;;
74528;SDS011;63009;52.584;5.932;2023-04-01T01:29:34;15.98;;;6.82;;
74528;SDS011;63009;52.584;5.932;2023-04-01T01:34:54;15.00;;;6.85;;
74528;SDS011;63009;52.584;5.932;2023-04-01T01:37:27;15.32;;;6.80;;
74528;SDS011;63009;52.584;5.932;2023-04-01T01:39:59;14.60;;;6.95;;
74528;SDS011;63009;52.584;5.932;2023-04-01T01:42:28;17.75;;;8.63;;
74528;SDS011;63009;52.584;5.932;2023-04-01T01:44:56;15.43;;;7.63;;
74528;SDS011;63009;52.584;5.932;2023-04-01T01:49:51;17.60;;;6.10;;
74528;SDS011;63009;52.584;5.932;2023-04-01T01:52:18;17.17;;;8.27;;
74528;SDS011;63009;52.584;5.932;2023-04-01T01:54:50;19.08;;;8.45;;
74528;SDS011;63009;52.584;5.932;2023-04-01T01:57:16;17.02;;;6.80;;
74528;SDS011;63009;52.584;5.932;2023-04-01T01:59:45;16.70;;;7.63;;
74528;SDS011;63009;52.584;5.932;2023-04-01T02:02:13;16.08;;;7.78;;
74528;SDS011;63009;52.584;5.932;2023-04-01T02:04:42;17.00;;;8.23;;
74528;SDS011;63009;52.584;5.932;2023-04-01T02:07:14;16.77;;;8.02;;
74528;SDS011;63009;52.584;5.932;2023-04-01T02:09:45;17.40;;;7.13;;
74528;SDS011;63009;52.584;5.932;2023-04-01T02:12:11;17.08;;;8.13;;
74528;SDS011;63009;52.584;5.932;2023-04-01T02:14:56;18.15;;;8.68;;
74528;SDS011;63009;52.584;5.932;2023-04-01T02:17:26;17.35;;;7.60;;
74528;SDS011;63009;52.584;5.932;2023-04-01T02:20:08;16.73;;;7.45;;
74528;SDS011;63009;52.584;5.932;2023-04-01T02:22:39;18.00;;;8.20;;
74528;SDS011;63009;52.584;5.932;2023-04-01T02:27:40;17.38;;;7.03;;
74528;SDS011;63009;52.584;5.932;2023-04-01T02:30:07;18.27;;;7.88;;
74528;SDS011;63009;52.584;5.932;2023-04-01T02:32:33;15.07;;;7.68;;
74528;SDS011;63009;52.584;5.932;2023-04-01T02:35:02;17.38;;;7.45;;
74528;SDS011;63009;52.584;5.932;2023-04-01T02:40:05;16.38;;;7.45;;
74528;SDS011;63009;52.584;5.932;2023-04-01T02:42:32;16.90;;;8.70;;
74528;SDS011;63009;52.584;5.932;2023-04-01T02:44:58;18.02;;;7.70;;
74528;SDS011;63009;52.584;5.932;2023-04-01T02:47:23;17.10;;;7.57;;
74528;SDS011;63009;52.584;5.932;2023-04-01T02:49:49;18.23;;;7.63;;
74528;SDS011;63009;52.584;5.932;2023-04-01T02:52:14;18.20;;;7.93;;
74528;SDS011;63009;52.584;5.932;2023-04-01T02:54:39;16.47;;;7.03;;
74528;SDS011;63009;52.584;5.932;2023-04-01T02:57:05;18.08;;;7.13;;
74528;SDS011;63009;52.584;5.932;2023-04-01T02:59:30;16.70;;;7.43;;
74528;SDS011;63009;52.584;5.932;2023-04-01T03:01:55;17.53;;;7.73;;
74528;SDS011;63009;52.584;5.932;2023-04-01T03:04:21;18.27;;;7.27;;
74528;SDS011;63009;52.584;5.932;2023-04-01T03:06:46;17.17;;;7.20;;
74528;SDS011;63009;52.584;5.932;2023-04-01T03:09:11;17.63;;;6.97;;
74528;SDS011;63009;52.584;5.932;2023-04-01T03:11:36;16.10;;;7.47;;
74528;SDS011;63009;52.584;5.932;2023-04-01T03:14:02;17.08;;;7.05;;
74528;SDS011;63009;52.584;5.932;2023-04-01T03:16:27;18.15;;;8.20;;
74528;SDS011;63009;52.584;5.932;2023-04-01T03:18:52;16.03;;;7.10;;
74528;SDS011;63009;52.584;5.932;2023-04-01T03:21:21;16.13;;;7.43;;
74528;SDS011;63009;52.584;5.932;2023-04-01T03:23:47;16.63;;;7.25;;
74528;SDS011;63009;52.584;5.932;2023-04-01T03:26:13;16.77;;;6.93;;
74528;SDS011;63009;52.584;5.932;2023-04-01T03:28:39;17.05;;;7.28;;
74528;SDS011;63009;52.584;5.932;2023-04-01T03:31:04;17.63;;;6.28;;
74528;SDS011;63009;52.584;5.932;2023-04-01T03:33:30;15.57;;;6.45;;
74528;SDS011;63009;52.584;5.932;2023-04-01T03:35:56;17.90;;;7.15;;
74528;SDS011;63009;52.584;5.932;2023-04-01T03:38:21;14.50;;;6.45;;
74528;SDS011;63009;52.584;5.932;2023-04-01T03:40:47;14.02;;;5.95;;
74528;SDS011;63009;52.584;5.932;2023-04-01T03:43:12;18.07;;;6.03;;
74528;SDS011;63009;52.584;5.932;2023-04-01T03:45:47;16.97;;;6.27;;
74528;SDS011;63009;52.584;5.932;2023-04-01T03:48:14;16.48;;;6.22;;
74528;SDS011;63009;52.584;5.932;2023-04-01T03:50:39;14.38;;;7.00;;
74528;SDS011;63009;52.584;5.932;2023-04-01T03:53:05;19.08;;;6.90;;
74528;SDS011;63009;52.584;5.932;2023-04-01T03:55:30;17.15;;;7.13;;
74528;SDS011;63009;52.584;5.932;2023-04-01T03:57:56;15.95;;;6.60;;
74528;SDS011;63009;52.584;5.932;2023-04-01T04:00:21;17.57;;;6.67;;
74528;SDS011;63009;52.584;5.932;2023-04-01T04:02:46;13.50;;;5.97;;
74528;SDS011;63009;52.584;5.932;2023-04-01T04:05:12;13.97;;;6.13;;
74528;SDS011;63009;52.584;5.932;2023-04-01T04:07:38;12.93;;;6.25;;
74528;SDS011;63009;52.584;5.932;2023-04-01T04:10:03;14.90;;;7.55;;
74528;SDS011;63009;52.584;5.932;2023-04-01T04:12:30;13.48;;;5.78;;
74528;SDS011;63009;52.584;5.932;2023-04-01T04:14:55;15.37;;;6.37;;
74528;SDS011;63009;52.584;5.932;2023-04-01T04:17:21;14.82;;;6.20;;
74528;SDS011;63009;52.584;5.932;2023-04-01T04:19:46;17.50;;;6.87;;
74528;SDS011;63009;52.584;5.932;2023-04-01T04:22:11;15.30;;;6.33;;
74528;SDS011;63009;52.584;5.932;2023-04-01T04:24:37;17.30;;;6.37;;
74528;SDS011;63009;52.584;5.932;2023-04-01T04:27:02;15.57;;;6.28;;
74528;SDS011;63009;52.584;5.932;2023-04-01T04:29:28;18.80;;;6.43;;
74528;SDS011;63009;52.584;5.932;2023-04-01T04:31:53;18.23;;;6.38;;
74528;SDS011;63009;52.584;5.932;2023-04-01T04:34:19;15.35;;;5.97;;
74528;SDS011;63009;52.584;5.932;2023-04-01T04:36:44;15.80;;;6.63;;
74528;SDS011;63009;52.584;5.932;2023-04-01T04:39:09;15.43;;;6.70;;
74528;SDS011;63009;52.584;5.932;2023-04-01T04:41:36;15.38;;;6.22;;
74528;SDS011;63009;52.584;5.932;2023-04-01T04:44:02;18.88;;;7.00;;
74528;SDS011;63009;52.584;5.932;2023-04-01T04:46:27;15.32;;;5.97;;
74528;SDS011;63009;52.584;5.932;2023-04-01T04:48:53;15.03;;;6.23;;
74528;SDS011;63009;52.584;5.932;2023-04-01T04:51:18;14.52;;;5.55;;
74528;SDS011;63009;52.584;5.932;2023-04-01T04:53:45;16.92;;;7.07;;
74528;SDS011;63009;52.584;5.932;2023-04-01T04:56:10;15.48;;;5.85;;
74528;SDS011;63009;52.584;5.932;2023-04-01T04:58:36;11.63;;;5.03;;
74528;SDS011;63009;52.584;5.932;2023-04-01T05:01:06;14.43;;;4.85;;
74528;SDS011;63009;52.584;5.932;2023-04-01T05:03:36;12.00;;;4.80;;
74528;SDS011;63009;52.584;5.932;2023-04-01T05:06:01;12.63;;;4.43;;
74528;SDS011;63009;52.584;5.932;2023-04-01T05:08:27;13.65;;;4.70;;
74528;SDS011;63009;52.584;5.932;2023-04-01T05:10:52;11.93;;;4.53;;
74528;SDS011;63009;52.584;5.932;2023-04-01T05:13:17;14.20;;;5.43;;
74528;SDS011;63009;52.584;5.932;2023-04-01T05:15:43;12.03;;;4.63;;
74528;SDS011;63009;52.584;5.932;2023-04-01T05:18:08;12.03;;;4.70;;
74528;SDS011;63009;52.584;5.932;2023-04-01T05:20:33;12.13;;;4.30;;
74528;SDS011;63009;52.584;5.932;2023-04-01T05:22:58;12.30;;;4.40;;
74528;SDS011;63009;52.584;5.932;2023-04-01T05:25:24;13.20;;;5.57;;
74528;SDS011;63009;52.584;5.932;2023-04-01T05:27:50;13.52;;;4.60;;
74528;SDS011;63009;52.584;5.932;2023-04-01T05:30:15;11.48;;;4.22;;
74528;SDS011;63009;52.584;5.932;2023-04-01T05:32:41;13.07;;;4.13;;
74528;SDS011;63009;52.584;5.932;2023-04-01T05:35:06;18.80;;;5.20;;
74528;SDS011;63009;52.584;5.932;2023-04-01T05:37:33;14.02;;;4.53;;
74528;SDS011;63009;52.584;5.932;2023-04-01T05:39:59;15.38;;;5.30;;
74528;SDS011;63009;52.584;5.932;2023-04-01T05:42:24;12.48;;;4.38;;
74528;SDS011;63009;52.584;5.932;2023-04-01T05:44:50;13.18;;;4.30;;
74528;SDS011;63009;52.584;5.932;2023-04-01T05:47:15;15.03;;;6.20;;
74528;SDS011;63009;52.584;5.932;2023-04-01T05:49:40;14.23;;;5.47;;
74528;SDS011;63009;52.584;5.932;2023-04-01T05:52:06;14.90;;;5.10;;
74528;SDS011;63009;52.584;5.932;2023-04-01T05:54:31;15.20;;;6.37;;
74528;SDS011;63009;52.584;5.932;2023-04-01T05:56:56;19.17;;;6.15;;
74528;SDS011;63009;52.584;5.932;2023-04-01T05:59:21;13.57;;;5.10;;
74528;SDS011;63009;52.584;5.932;2023-04-01T06:01:47;12.27;;;5.07;;
74528;SDS011;63009;52.584;5.932;2023-04-01T06:04:13;16.93;;;6.13;;
74528;SDS011;63009;52.584;5.932;2023-04-01T06:06:40;16.80;;;5.80;;
74528;SDS011;63009;52.584;5.932;2023-04-01T06:17:23;16.83;;;6.70;;
74528;SDS011;63009;52.584;5.932;2023-04-01T06:23:17;16.48;;;6.90;;
74528;SDS011;63009;52.584;5.932;2023-04-01T06:25:53;19.77;;;7.38;;
74528;SDS011;63009;52.584;5.932;2023-04-01T06:31:18;13.77;;;5.57;;
74528;SDS011;63009;52.584;5.932;2023-04-01T06:34:08;14.77;;;5.68;;
74528;SDS011;63009;52.584;5.932;2023-04-01T06:37:19;11.85;;;4.20;;
74528;SDS011;63009;52.584;5.932;2023-04-01T06:42:54;8.35;;;2.10;;
74528;SDS011;63009;52.584;5.932;2023-04-01T06:45:54;8.88;;;2.83;;
74528;SDS011;63009;52.584;5.932;2023-04-01T06:53:36;9.93;;;2.93;;
74528;SDS011;63009;52.584;5.932;2023-04-01T06:56:12;8.93;;;2.97;;
74528;SDS011;63009;52.584;5.932;2023-04-01T06:58:42;8.65;;;2.88;;
74528;SDS011;63009;52.584;5.932;2023-04-01T07:01:17;10.07;;;2.97;;
74528;SDS011;63009;52.584;5.932;2023-04-01T07:06:33;7.90;;;2.58;;
74528;SDS011;63009;52.584;5.932;2023-04-01T07:09:03;8.27;;;2.33;;
74528;SDS011;63009;52.584;5.932;2023-04-01T07:11:34;7.88;;;2.28;;
74528;SDS011;63009;52.584;5.932;2023-04-01T07:14:04;8.23;;;2.70;;
74528;SDS011;63009;52.584;5.932;2023-04-01T07:21:47;7.03;;;2.03;;
74528;SDS011;63009;52.584;5.932;2023-04-01T07:24:39;7.97;;;2.15;;
74528;SDS011;63009;52.584;5.932;2023-04-01T07:27:05;8.95;;;2.67;;
74528;SDS011;63009;52.584;5.932;2023-04-01T07:29:34;8.25;;;2.45;;
74528;SDS011;63009;52.584;5.932;2023-04-01T07:34:30;7.72;;;2.78;;
74528;SDS011;63009;52.584;5.932;2023-04-01T07:37:28;7.40;;;2.63;;
74528;SDS011;63009;52.584;5.932;2023-04-01T07:50:52;7.55;;;2.00;;
74528;SDS011;63009;52.584;5.932;2023-04-01T07:53:28;7.78;;;2.55;;
74528;SDS011;63009;52.584;5.932;2023-04-01T07:59:01;6.53;;;1.98;;
74528;SDS011;63009;52.584;5.932;2023-04-01T08:06:50;6.53;;;1.90;;
74528;SDS011;63009;52.584;5.932;2023-04-01T08:09:29;7.38;;;1.83;;
74528;SDS011;63009;52.584;5.932;2023-04-01T08:12:31;6.32;;;2.05;;
74528;SDS011;63009;52.584;5.932;2023-04-01T08:15:12;6.45;;;1.90;;
74528;SDS011;63009;52.584;5.932;2023-04-01T08:17:53;6.63;;;1.83;;
74528;SDS011;63009;52.584;5.932;2023-04-01T08:20:39;7.18;;;2.15;;
74528;SDS011;63009;52.584;5.932;2023-04-01T08:23:16;6.35;;;1.85;;
74528;SDS011;63009;52.584;5.932;2023-04-01T08:25:46;7.80;;;2.10;;
74528;SDS011;63009;52.584;5.932;2023-04-01T08:30:51;7.53;;;2.15;;
74528;SDS011;63009;52.584;5.932;2023-04-01T08:33:23;7.18;;;1.50;;
74528;SDS011;63009;52.584;5.932;2023-04-01T08:35:59;6.22;;;1.80;;
74528;SDS011;63009;52.584;5.932;2023-04-01T08:38:29;6.60;;;2.03;;
74528;SDS011;63009;52.584;5.932;2023-04-01T08:49:27;9.10;;;3.00;;
74528;SDS011;63009;52.584;5.932;2023-04-01T08:52:21;8.52;;;2.70;;
74528;SDS011;63009;52.584;5.932;2023-04-01T08:55:15;9.68;;;3.38;;
74528;SDS011;63009;52.584;5.932;2023-04-01T08:58:11;8.38;;;2.65;;
74528;SDS011;63009;52.584;5.932;2023-04-01T09:00:53;7.47;;;2.58;;
74528;SDS011;63009;52.584;5.932;2023-04-01T09:25:46;6.50;;;1.88;;
74528;SDS011;63009;52.584;5.932;2023-04-01T09:37:20;7.90;;;2.70;;
74528;SDS011;63009;52.584;5.932;2023-04-01T09:44:59;9.30;;;3.30;;
74528;SDS011;63009;52.584;5.932;2023-04-01T09:50:35;10.23;;;3.63;;
74528;SDS011;63009;52.584;5.932;2023-04-01T10:06:45;10.15;;;3.80;;
74528;SDS011;63009;52.584;5.932;2023-04-01T10:15:54;10.77;;;4.15;;
74528;SDS011;63009;52.584;5.932;2023-04-01T10:27:57;10.82;;;4.53;;
74528;SDS011;63009;52.584;5.932;2023-04-01T10:41:58;11.38;;;4.55;;
74528;SDS011;63009;52.584;5.932;2023-04-01T10:50:39;11.80;;;4.68;;
74528;SDS011;63009;52.584;5.932;2023-04-01T11:23:58;10.25;;;4.32;;
74528;SDS011;63009;52.584;5.932;2023-04-01T11:29:50;11.77;;;5.22;;
74528;SDS011;63009;52.584;5.932;2023-04-01T11:32:43;11.20;;;5.00;;
74528;SDS011;63009;52.584;5.932;2023-04-01T11:40:56;9.57;;;4.40;;
74528;SDS011;63009;52.584;5.932;2023-04-01T11:46:42;12.80;;;4.28;;
74528;SDS011;63009;52.584;5.932;2023-04-01T11:49:24;9.90;;;4.32;;
74528;SDS011;63009;52.584;5.932;2023-04-01T11:55:19;11.23;;;4.90;;
74528;SDS011;63009;52.584;5.932;2023-04-01T12:00:51;11.70;;;4.80;;
74528;SDS011;63009;52.584;5.932;2023-04-01T12:03:32;11.25;;;4.63;;
74528;SDS011;63009;52.584;5.932;2023-04-01T12:17:46;9.02;;;3.50;;
74528;SDS011;63009;52.584;5.932;2023-04-01T12:26:00;9.25;;;3.90;;
74528;SDS011;63009;52.584;5.932;2023-04-01T12:28:44;8.93;;;3.90;;
74528;SDS011;63009;52.584;5.932;2023-04-01T12:42:44;9.43;;;3.95;;
74528;SDS011;63009;52.584;5.932;2023-04-01T12:50:51;9.32;;;3.92;;
74528;SDS011;63009;52.584;5.932;2023-04-01T12:59:08;8.48;;;3.50;;
74528;SDS011;63009;52.584;5.932;2023-04-01T13:17:52;8.65;;;3.50;;
74528;SDS011;63009;52.584;5.932;2023-04-01T13:20:52;10.23;;;3.58;;
74528;SDS011;63009;52.584;5.932;2023-04-01T13:23:33;8.95;;;3.65;;
74528;SDS011;63009;52.584;5.932;2023-04-01T13:29:14;8.50;;;3.17;;
74528;SDS011;63009;52.584;5.932;2023-04-01T13:37:15;7.70;;;2.90;;
74528;SDS011;63009;52.584;5.932;2023-04-01T13:40:12;8.70;;;3.00;;
74528;SDS011;63009;52.584;5.932;2023-04-01T13:42:47;7.88;;;2.97;;
74528;SDS011;63009;52.584;5.932;2023-04-01T13:45:26;8.40;;;3.17;;
74528;SDS011;63009;52.584;5.932;2023-04-01T13:51:13;8.00;;;2.97;;
74528;SDS011;63009;52.584;5.932;2023-04-01T13:53:59;7.72;;;3.10;;
74528;SDS011;63009;52.584;5.932;2023-04-01T14:05:01;9.32;;;3.90;;
74528;SDS011;63009;52.584;5.932;2023-04-01T14:07:44;9.05;;;3.67;;
74528;SDS011;63009;52.584;5.932;2023-04-01T14:13:04;13.27;;;4.25;;
74528;SDS011;63009;52.584;5.932;2023-04-01T14:16:04;8.48;;;3.45;;
74528;SDS011;63009;52.584;5.932;2023-04-01T14:25:21;10.68;;;4.30;;
74528;SDS011;63009;52.584;5.932;2023-04-01T14:27:57;9.27;;;3.28;;
74528;SDS011;63009;52.584;5.932;2023-04-01T14:30:51;8.77;;;3.58;;
74528;SDS011;63009;52.584;5.932;2023-04-01T14:34:03;8.07;;;2.95;;
74528;SDS011;63009;52.584;5.932;2023-04-01T14:36:50;9.18;;;4.00;;
74528;SDS011;63009;52.584;5.932;2023-04-01T14:39:29;8.65;;;3.30;;
74528;SDS011;63009;52.584;5.932;2023-04-01T14:50:17;8.77;;;3.58;;
74528;SDS011;63009;52.584;5.932;2023-04-01T15:00:39;7.53;;;2.78;;
74528;SDS011;63009;52.584;5.932;2023-04-01T15:09:03;7.70;;;3.10;;
74528;SDS011;63009;52.584;5.932;2023-04-01T15:12:01;7.18;;;2.67;;
74528;SDS011;63009;52.584;5.932;2023-04-01T15:23:00;7.32;;;2.90;;
74528;SDS011;63009;52.584;5.932;2023-04-01T15:25:50;7.25;;;2.72;;
74528;SDS011;63009;52.584;5.932;2023-04-01T15:28:30;6.95;;;2.80;;
74528;SDS011;63009;52.584;5.932;2023-04-01T15:31:14;6.97;;;2.75;;
74528;SDS011;63009;52.584;5.932;2023-04-01T15:37:04;7.47;;;3.05;;
74528;SDS011;63009;52.584;5.932;2023-04-01T15:39:44;6.40;;;2.42;;
74528;SDS011;63009;52.584;5.932;2023-04-01T15:42:33;7.00;;;3.00;;
74528;SDS011;63009;52.584;5.932;2023-04-01T15:45:04;7.32;;;2.20;;
74528;SDS011;63009;52.584;5.932;2023-04-01T15:48:01;6.75;;;2.38;;
74528;SDS011;63009;52.584;5.932;2023-04-01T15:50:44;5.15;;;1.92;;
74528;SDS011;63009;52.584;5.932;2023-04-01T15:58:39;6.45;;;2.83;;
74528;SDS011;63009;52.584;5.932;2023-04-01T16:12:21;6.80;;;2.65;;
74528;SDS011;63009;52.584;5.932;2023-04-01T16:15:03;6.82;;;2.42;;
74528;SDS011;63009;52.584;5.932;2023-04-01T16:17:46;7.47;;;1.95;;
74528;SDS011;63009;52.584;5.932;2023-04-01T16:20:35;7.43;;;2.22;;
74528;SDS011;63009;52.584;5.932;2023-04-01T16:25:42;6.70;;;2.30;;
74528;SDS011;63009;52.584;5.932;2023-04-01T16:33:34;6.65;;;2.40;;
74528;SDS011;63009;52.584;5.932;2023-04-01T16:36:29;6.35;;;2.45;;
74528;SDS011;63009;52.584;5.932;2023-04-01T16:47:40;8.00;;;3.33;;
74528;SDS011;63009;52.584;5.932;2023-04-01T16:50:20;8.05;;;3.20;;
74528;SDS011;63009;52.584;5.932;2023-04-01T16:55:24;8.38;;;3.50;;
74528;SDS011;63009;52.584;5.932;2023-04-01T16:58:00;7.53;;;3.10;;
74528;SDS011;63009;52.584;5.932;2023-04-01T17:00:38;7.88;;;4.07;;
74528;SDS011;63009;52.584;5.932;2023-04-01T17:03:15;7.20;;;3.15;;
74528;SDS011;63009;52.584;5.932;2023-04-01T17:16:48;7.00;;;3.10;;
74528;SDS011;63009;52.584;5.932;2023-04-01T17:27:37;6.85;;;2.58;;
74528;SDS011;63009;52.584;5.932;2023-04-01T17:35:43;7.50;;;3.05;;
74528;SDS011;63009;52.584;5.932;2023-04-01T17:38:44;8.10;;;3.67;;
74528;SDS011;63009;52.584;5.932;2023-04-01T17:41:25;7.90;;;3.47;;
74528;SDS011;63009;52.584;5.932;2023-04-01T17:44:05;9.02;;;4.15;;
74528;SDS011;63009;52.584;5.932;2023-04-01T17:49:19;8.00;;;3.38;;
74528;SDS011;63009;52.584;5.932;2023-04-01T17:54:28;10.60;;;4.88;;
74528;SDS011;63009;52.584;5.932;2023-04-01T17:57:24;10.07;;;4.65;;
74528;SDS011;63009;52.584;5.932;2023-04-01T18:05:40;10.57;;;4.63;;
74528;SDS011;63009;52.584;5.932;2023-04-01T18:13:59;10.07;;;5.20;;
74528;SDS011;63009;52.584;5.932;2023-04-01T18:16:39;10.45;;;5.47;;
74528;SDS011;63009;52.584;5.932;2023-04-01T18:31:34;10.23;;;5.15;;
74528;SDS011;63009;52.584;5.932;2023-04-01T18:36:26;11.93;;;6.18;;
74528;SDS011;63009;52.584;5.932;2023-04-01T18:39:07;11.40;;;5.93;;
74528;SDS011;63009;52.584;5.932;2023-04-01T18:44:25;11.10;;;5.25;;
74528;SDS011;63009;52.584;5.932;2023-04-01T18:50:13;10.07;;;5.03;;
74528;SDS011;63009;52.584;5.932;2023-04-01T18:52:41;10.35;;;4.78;;
74528;SDS011;63009;52.584;5.932;2023-04-01T18:58:12;10.48;;;5.60;;
74528;SDS011;63009;52.584;5.932;2023-04-01T19:00:47;10.70;;;5.07;;
74528;SDS011;63009;52.584;5.932;2023-04-01T19:03:21;11.15;;;5.72;;
74528;SDS011;63009;52.584;5.932;2023-04-01T19:05:53;10.38;;;4.43;;
74528;SDS011;63009;52.584;5.932;2023-04-01T19:08:34;12.07;;;4.95;;
74528;SDS011;63009;52.584;5.932;2023-04-01T19:21:45;9.15;;;4.47;;
74528;SDS011;63009;52.584;5.932;2023-04-01T19:27:03;10.95;;;4.75;;
74528;SDS011;63009;52.584;5.932;2023-04-01T19:41:08;10.07;;;4.68;;
74528;SDS011;63009;52.584;5.932;2023-04-01T19:43:59;12.02;;;6.03;;
74528;SDS011;63009;52.584;5.932;2023-04-01T19:46:49;10.60;;;5.43;;
74528;SDS011;63009;52.584;5.932;2023-04-01T19:52:14;12.32;;;6.05;;
74528;SDS011;63009;52.584;5.932;2023-04-01T19:57:29;12.95;;;6.13;;
74528;SDS011;63009;52.584;5.932;2023-04-01T20:08:14;16.40;;;8.60;;
74528;SDS011;63009;52.584;5.932;2023-04-01T20:10:46;11.60;;;5.82;;
74528;SDS011;63009;52.584;5.932;2023-04-01T20:16:11;13.65;;;5.88;;
74528;SDS011;63009;52.584;5.932;2023-04-01T20:18:44;11.90;;;5.93;;
74528;SDS011;63009;52.584;5.932;2023-04-01T20:21:18;14.15;;;6.90;;
74528;SDS011;63009;52.584;5.932;2023-04-01T20:26:39;13.25;;;7.00;;
74528;SDS011;63009;52.584;5.932;2023-04-01T20:37:50;16.98;;;6.97;;
74528;SDS011;63009;52.584;5.932;2023-04-01T20:40:38;14.02;;;6.88;;
74528;SDS011;63009;52.584;5.932;2023-04-01T20:51:24;13.38;;;6.40;;
74528;SDS011;63009;52.584;5.932;2023-04-01T21:14:13;14.13;;;6.68;;
74528;SDS011;63009;52.584;5.932;2023-04-01T21:39:08;11.40;;;6.18;;
74528;SDS011;63009;52.584;5.932;2023-04-01T21:44:36;15.20;;;7.40;;
74528;SDS011;63009;52.584;5.932;2023-04-01T21:49:56;17.75;;;7.25;;
74528;SDS011;63009;52.584;5.932;2023-04-01T21:52:46;16.48;;;7.05;;
74528;SDS011;63009;52.584;5.932;2023-04-01T21:55:56;13.25;;;6.90;;
74528;SDS011;63009;52.584;5.932;2023-04-01T21:58:55;15.75;;;7.57;;
74528;SDS011;63009;52.584;5.932;2023-04-01T22:04:28;13.45;;;6.85;;
74528;SDS011;63009;52.584;5.932;2023-04-01T22:09:52;17.27;;;7.50;;
74528;SDS011;63009;52.584;5.932;2023-04-01T22:12:32;18.00;;;8.18;;
74528;SDS011;63009;52.584;5.932;2023-04-01T22:20:40;16.45;;;7.72;;
74528;SDS011;63009;52.584;5.932;2023-04-01T22:25:56;16.58;;;7.68;;
74528;SDS011;63009;52.584;5.932;2023-04-01T22:28:30;16.20;;;8.02;;
74528;SDS011;63009;52.584;5.932;2023-04-01T22:31:02;14.55;;;7.40;;
74528;SDS011;63009;52.584;5.932;2023-04-01T22:33:48;16.08;;;7.30;;
74528;SDS011;63009;52.584;5.932;2023-04-01T22:42:11;13.70;;;6.75;;
74528;SDS011;63009;52.584;5.932;2023-04-01T22:49:56;12.60;;;6.32;;
74528;SDS011;63009;52.584;5.932;2023-04-01T22:52:33;17.38;;;7.47;;
74528;SDS011;63009;52.584;5.932;2023-04-01T22:55:15;16.85;;;6.40;;
74528;SDS011;63009;52.584;5.932;2023-04-01T22:57:49;16.05;;;7.10;;
74528;SDS011;63009;52.584;5.932;2023-04-01T23:00:28;17.95;;;7.85;;
74528;SDS011;63009;52.584;5.932;2023-04-01T23:03:15;15.02;;;7.53;;
74528;SDS011;63009;52.584;5.932;2023-04-01T23:05:47;15.82;;;7.13;;
74528;SDS011;63009;52.584;5.932;2023-04-01T23:11:10;16.98;;;7.15;;
74528;SDS011;63009;52.584;5.932;2023-04-01T23:13:44;14.82;;;6.60;;
74528;SDS011;63009;52.584;5.932;2023-04-01T23:16:13;15.02;;;8.38;;
74528;SDS011;63009;52.584;5.932;2023-04-01T23:19:00;18.42;;;7.85;;
74528;SDS011;63009;52.584;5.932;2023-04-01T23:21:39;12.88;;;7.30;;
74528;SDS011;63009;52.584;5.932;2023-04-01T23:24:19;13.23;;;6.38;;
74528;SDS011;63009;52.584;5.932;2023-04-01T23:27:16;14.35;;;6.55;;
74528;SDS011;63009;52.584;5.932;2023-04-01T23:29:46;14.13;;;6.80;;
74528;SDS011;63009;52.584;5.932;2023-04-01T23:32:18;14.40;;;6.97;;
74528;SDS011;63009;52.584;5.932;2023-04-01T23:34:47;13.80;;;7.72;;
74528;SDS011;63009;52.584;5.932;2023-04-01T23:37:16;16.00;;;7.15;;
74528;SDS011;63009;52.584;5.932;2023-04-01T23:39:48;17.95;;;6.72;;
74528;SDS011;63009;52.584;5.932;2023-04-01T23:42:23;17.13;;;6.82;;
74528;SDS011;63009;52.584;5.932;2023-04-01T23:44:56;16.33;;;6.88;;
74528;SDS011;63009;52.584;5.932;2023-04-01T23:47:24;16.55;;;7.28;;
74528;SDS011;63009;52.584;5.932;2023-04-01T23:49:58;19.30;;;7.25;;
74528;SDS011;63009;52.584;5.932;2023-04-01T23:52:26;13.65;;;6.55;;
74528;SDS011;63009;52.584;5.932;2023-04-01T23:54:58;15.90;;;6.50;;
74528;SDS011;63009;52.584;5.932;2023-04-01T23:57:33;13.90;;;7.05;;
